sensor_id;sensor_type;location;lat;lon;timestamp;temperature;humidity
12708;DHT22;6418;50.824;4.718;2023-07-13T00:00:29;16.60;99.90
12708;DHT22;6418;50.824;4.718;2023-07-13T00:02:59;16.60;99.90
12708;DHT22;6418;50.824;4.718;2023-07-13T00:05:26;16.50;99.90
12708;DHT22;6418;50.824;4.718;2023-07-13T00:07:53;16.50;99.90
12708;DHT22;6418;50.824;4.718;2023-07-13T00:10:20;16.50;99.90
12708;DHT22;6418;50.824;4.718;2023-07-13T00:12:47;16.40;99.90
12708;DHT22;6418;50.824;4.718;2023-07-13T00:15:17;16.40;99.90
12708;DHT22;6418;50.824;4.718;2023-07-13T00:17:46;16.40;99.90
12708;DHT22;6418;50.824;4.718;2023-07-13T00:20:15;16.30;99.90
12708;DHT22;6418;50.824;4.718;2023-07-13T00:22:42;16.30;99.90
12708;DHT22;6418;50.824;4.718;2023-07-13T00:25:10;16.30;99.90
12708;DHT22;6418;50.824;4.718;2023-07-13T00:27:38;16.30;99.90
12708;DHT22;6418;50.824;4.718;2023-07-13T00:30:06;16.20;99.90
12708;DHT22;6418;50.824;4.718;2023-07-13T00:32:34;16.20;99.90
12708;DHT22;6418;50.824;4.718;2023-07-13T00:35:01;16.20;99.90
12708;DHT22;6418;50.824;4.718;2023-07-13T00:37:31;16.20;99.90
12708;DHT22;6418;50.824;4.718;2023-07-13T00:39:59;16.20;99.90
12708;DHT22;6418;50.824;4.718;2023-07-13T00:42:26;16.10;99.90
12708;DHT22;6418;50.824;4.718;2023-07-13T00:46:07;16.10;99.90
12708;DHT22;6418;50.824;4.718;2023-07-13T00:47:56;16.10;99.90
12708;DHT22;6418;50.824;4.718;2023-07-13T00:50:24;16.10;99.90
12708;DHT22;6418;50.824;4.718;2023-07-13T00:52:55;16.10;99.90
12708;DHT22;6418;50.824;4.718;2023-07-13T00:55:23;16.10;99.90
12708;DHT22;6418;50.824;4.718;2023-07-13T00:57:50;16.00;99.90
12708;DHT22;6418;50.824;4.718;2023-07-13T01:00:18;16.00;99.90
12708;DHT22;6418;50.824;4.718;2023-07-13T01:02:47;16.00;99.90
12708;DHT22;6418;50.824;4.718;2023-07-13T01:05:17;16.00;99.90
12708;DHT22;6418;50.824;4.718;2023-07-13T01:07:45;16.00;99.90
12708;DHT22;6418;50.824;4.718;2023-07-13T01:10:15;15.90;99.90
12708;DHT22;6418;50.824;4.718;2023-07-13T01:12:43;15.90;99.90
12708;DHT22;6418;50.824;4.718;2023-07-13T01:15:34;15.90;99.90
12708;DHT22;6418;50.824;4.718;2023-07-13T01:18:03;15.80;99.90
12708;DHT22;6418;50.824;4.718;2023-07-13T01:20:30;15.90;99.90
12708;DHT22;6418;50.824;4.718;2023-07-13T01:23:03;15.80;99.90
12708;DHT22;6418;50.824;4.718;2023-07-13T01:25:31;15.80;99.90
12708;DHT22;6418;50.824;4.718;2023-07-13T01:27:58;15.80;99.90
12708;DHT22;6418;50.824;4.718;2023-07-13T01:30:25;15.70;99.90
12708;DHT22;6418;50.824;4.718;2023-07-13T01:32:52;15.80;99.90
12708;DHT22;6418;50.824;4.718;2023-07-13T01:35:18;15.70;99.90
12708;DHT22;6418;50.824;4.718;2023-07-13T01:37:45;15.70;99.90
12708;DHT22;6418;50.824;4.718;2023-07-13T01:40:14;15.70;99.90
12708;DHT22;6418;50.824;4.718;2023-07-13T01:42:41;15.70;99.90
12708;DHT22;6418;50.824;4.718;2023-07-13T01:45:08;15.70;99.90
12708;DHT22;6418;50.824;4.718;2023-07-13T01:47:35;15.60;99.90
12708;DHT22;6418;50.824;4.718;2023-07-13T01:50:02;15.60;99.90
12708;DHT22;6418;50.824;4.718;2023-07-13T01:52:29;15.60;99.90
12708;DHT22;6418;50.824;4.718;2023-07-13T01:54:56;15.60;99.90
12708;DHT22;6418;50.824;4.718;2023-07-13T01:57:24;15.50;99.90
12708;DHT22;6418;50.824;4.718;2023-07-13T01:59:51;15.50;99.90
12708;DHT22;6418;50.824;4.718;2023-07-13T02:02:18;15.50;99.90
12708;DHT22;6418;50.824;4.718;2023-07-13T02:04:45;15.50;99.90
12708;DHT22;6418;50.824;4.718;2023-07-13T02:07:12;15.50;99.90
12708;DHT22;6418;50.824;4.718;2023-07-13T02:09:40;15.50;99.90
12708;DHT22;6418;50.824;4.718;2023-07-13T02:12:09;15.40;99.90
12708;DHT22;6418;50.824;4.718;2023-07-13T02:14:37;15.40;99.90
12708;DHT22;6418;50.824;4.718;2023-07-13T02:17:04;15.40;99.90
12708;DHT22;6418;50.824;4.718;2023-07-13T02:19:31;15.40;99.90
12708;DHT22;6418;50.824;4.718;2023-07-13T02:21:58;15.40;99.90
12708;DHT22;6418;50.824;4.718;2023-07-13T02:24:25;15.40;99.90
12708;DHT22;6418;50.824;4.718;2023-07-13T02:26:52;15.30;99.90
12708;DHT22;6418;50.824;4.718;2023-07-13T02:29:19;15.30;99.90
12708;DHT22;6418;50.824;4.718;2023-07-13T02:31:47;15.30;99.90
12708;DHT22;6418;50.824;4.718;2023-07-13T02:34:14;15.30;99.90
12708;DHT22;6418;50.824;4.718;2023-07-13T02:36:41;15.30;99.90
12708;DHT22;6418;50.824;4.718;2023-07-13T02:39:09;15.30;99.90
12708;DHT22;6418;50.824;4.718;2023-07-13T02:41:37;15.30;99.90
12708;DHT22;6418;50.824;4.718;2023-07-13T02:44:05;15.20;99.90
12708;DHT22;6418;50.824;4.718;2023-07-13T02:46:34;15.20;99.90
12708;DHT22;6418;50.824;4.718;2023-07-13T02:49:03;15.20;99.90
12708;DHT22;6418;50.824;4.718;2023-07-13T02:51:30;15.20;99.90
12708;DHT22;6418;50.824;4.718;2023-07-13T02:53:59;15.20;99.90
12708;DHT22;6418;50.824;4.718;2023-07-13T02:56:29;15.10;99.90
12708;DHT22;6418;50.824;4.718;2023-07-13T02:58:56;15.20;99.90
12708;DHT22;6418;50.824;4.718;2023-07-13T03:01:23;15.10;99.90
12708;DHT22;6418;50.824;4.718;2023-07-13T03:03:52;15.10;99.90
12708;DHT22;6418;50.824;4.718;2023-07-13T03:06:20;15.10;99.90
12708;DHT22;6418;50.824;4.718;2023-07-13T03:08:48;15.00;99.90
12708;DHT22;6418;50.824;4.718;2023-07-13T03:11:17;15.00;99.90
12708;DHT22;6418;50.824;4.718;2023-07-13T03:13:45;15.00;99.90
12708;DHT22;6418;50.824;4.718;2023-07-13T03:16:12;15.00;99.90
12708;DHT22;6418;50.824;4.718;2023-07-13T03:18:41;15.00;99.90
12708;DHT22;6418;50.824;4.718;2023-07-13T03:21:08;15.00;99.90
12708;DHT22;6418;50.824;4.718;2023-07-13T03:23:37;15.00;99.90
12708;DHT22;6418;50.824;4.718;2023-07-13T03:26:05;15.00;99.90
12708;DHT22;6418;50.824;4.718;2023-07-13T03:28:33;14.90;99.90
12708;DHT22;6418;50.824;4.718;2023-07-13T03:31:01;14.90;99.90
12708;DHT22;6418;50.824;4.718;2023-07-13T03:33:28;14.90;99.90
12708;DHT22;6418;50.824;4.718;2023-07-13T03:35:55;14.90;99.90
12708;DHT22;6418;50.824;4.718;2023-07-13T03:38:22;14.90;99.90
12708;DHT22;6418;50.824;4.718;2023-07-13T03:40:51;14.90;99.90
12708;DHT22;6418;50.824;4.718;2023-07-13T03:43:18;14.90;99.90
12708;DHT22;6418;50.824;4.718;2023-07-13T03:45:46;14.90;99.90
12708;DHT22;6418;50.824;4.718;2023-07-13T03:48:13;14.90;99.90
12708;DHT22;6418;50.824;4.718;2023-07-13T03:50:40;14.90;99.90
12708;DHT22;6418;50.824;4.718;2023-07-13T03:53:07;14.90;99.90
12708;DHT22;6418;50.824;4.718;2023-07-13T03:55:34;14.90;99.90
12708;DHT22;6418;50.824;4.718;2023-07-13T03:58:29;14.90;99.90
12708;DHT22;6418;50.824;4.718;2023-07-13T04:00:56;14.90;99.90
12708;DHT22;6418;50.824;4.718;2023-07-13T04:03:24;14.90;99.90
12708;DHT22;6418;50.824;4.718;2023-07-13T04:05:54;14.90;99.90
12708;DHT22;6418;50.824;4.718;2023-07-13T04:08:20;14.80;99.90
12708;DHT22;6418;50.824;4.718;2023-07-13T04:10:47;14.90;99.90
12708;DHT22;6418;50.824;4.718;2023-07-13T04:13:15;14.90;99.90
12708;DHT22;6418;50.824;4.718;2023-07-13T04:15:43;14.80;99.90
12708;DHT22;6418;50.824;4.718;2023-07-13T04:18:10;14.90;99.90
12708;DHT22;6418;50.824;4.718;2023-07-13T04:20:36;14.90;99.90
12708;DHT22;6418;50.824;4.718;2023-07-13T04:23:03;14.90;99.90
12708;DHT22;6418;50.824;4.718;2023-07-13T04:25:31;15.00;99.90
12708;DHT22;6418;50.824;4.718;2023-07-13T04:27:57;15.00;99.90
12708;DHT22;6418;50.824;4.718;2023-07-13T04:30:35;15.10;99.90
12708;DHT22;6418;50.824;4.718;2023-07-13T04:33:02;15.10;99.90
12708;DHT22;6418;50.824;4.718;2023-07-13T04:35:30;15.20;99.90
12708;DHT22;6418;50.824;4.718;2023-07-13T04:37:57;15.30;99.90
12708;DHT22;6418;50.824;4.718;2023-07-13T04:40:24;15.30;99.90
12708;DHT22;6418;50.824;4.718;2023-07-13T04:42:51;15.40;99.90
12708;DHT22;6418;50.824;4.718;2023-07-13T04:45:18;15.40;99.90
12708;DHT22;6418;50.824;4.718;2023-07-13T04:47:46;15.40;99.90
12708;DHT22;6418;50.824;4.718;2023-07-13T04:50:13;15.50;99.90
12708;DHT22;6418;50.824;4.718;2023-07-13T04:52:45;15.50;99.90
12708;DHT22;6418;50.824;4.718;2023-07-13T04:55:12;15.60;99.90
12708;DHT22;6418;50.824;4.718;2023-07-13T04:57:39;15.60;99.90
12708;DHT22;6418;50.824;4.718;2023-07-13T05:00:07;15.70;99.90
12708;DHT22;6418;50.824;4.718;2023-07-13T05:02:34;15.70;99.90
12708;DHT22;6418;50.824;4.718;2023-07-13T05:05:03;15.70;99.90
12708;DHT22;6418;50.824;4.718;2023-07-13T05:07:30;15.80;99.90
12708;DHT22;6418;50.824;4.718;2023-07-13T05:09:58;15.90;99.90
12708;DHT22;6418;50.824;4.718;2023-07-13T05:12:25;15.90;99.90
12708;DHT22;6418;50.824;4.718;2023-07-13T05:14:52;16.00;99.90
12708;DHT22;6418;50.824;4.718;2023-07-13T05:17:19;16.00;99.90
12708;DHT22;6418;50.824;4.718;2023-07-13T05:19:46;16.00;99.90
12708;DHT22;6418;50.824;4.718;2023-07-13T05:22:14;16.10;99.90
12708;DHT22;6418;50.824;4.718;2023-07-13T05:24:41;16.20;99.90
12708;DHT22;6418;50.824;4.718;2023-07-13T05:27:08;16.20;99.90
12708;DHT22;6418;50.824;4.718;2023-07-13T05:29:34;16.30;99.90
12708;DHT22;6418;50.824;4.718;2023-07-13T05:32:01;16.30;99.90
12708;DHT22;6418;50.824;4.718;2023-07-13T05:34:29;16.40;99.90
12708;DHT22;6418;50.824;4.718;2023-07-13T05:36:56;16.40;99.90
12708;DHT22;6418;50.824;4.718;2023-07-13T05:39:24;16.40;99.90
12708;DHT22;6418;50.824;4.718;2023-07-13T05:41:51;16.50;99.90
12708;DHT22;6418;50.824;4.718;2023-07-13T05:44:18;16.50;99.90
12708;DHT22;6418;50.824;4.718;2023-07-13T05:46:46;16.60;99.90
12708;DHT22;6418;50.824;4.718;2023-07-13T05:49:12;16.60;99.90
12708;DHT22;6418;50.824;4.718;2023-07-13T05:51:39;16.60;99.90
12708;DHT22;6418;50.824;4.718;2023-07-13T05:54:06;16.70;99.90
12708;DHT22;6418;50.824;4.718;2023-07-13T05:56:34;16.80;99.90
12708;DHT22;6418;50.824;4.718;2023-07-13T05:59:01;16.80;99.90
12708;DHT22;6418;50.824;4.718;2023-07-13T06:01:29;16.90;99.90
12708;DHT22;6418;50.824;4.718;2023-07-13T06:03:56;16.90;99.90
12708;DHT22;6418;50.824;4.718;2023-07-13T06:06:23;17.00;99.90
12708;DHT22;6418;50.824;4.718;2023-07-13T06:08:50;17.00;99.90
12708;DHT22;6418;50.824;4.718;2023-07-13T06:11:19;17.10;99.90
12708;DHT22;6418;50.824;4.718;2023-07-13T06:13:48;17.10;99.90
12708;DHT22;6418;50.824;4.718;2023-07-13T06:16:15;17.20;99.90
12708;DHT22;6418;50.824;4.718;2023-07-13T06:18:42;17.20;99.90
12708;DHT22;6418;50.824;4.718;2023-07-13T06:21:11;17.30;99.90
12708;DHT22;6418;50.824;4.718;2023-07-13T06:23:39;17.30;99.90
12708;DHT22;6418;50.824;4.718;2023-07-13T06:26:06;17.40;99.90
12708;DHT22;6418;50.824;4.718;2023-07-13T06:28:34;17.40;99.90
12708;DHT22;6418;50.824;4.718;2023-07-13T06:31:05;17.40;99.90
12708;DHT22;6418;50.824;4.718;2023-07-13T06:33:32;17.40;99.90
12708;DHT22;6418;50.824;4.718;2023-07-13T06:35:59;17.50;99.90
12708;DHT22;6418;50.824;4.718;2023-07-13T06:38:26;17.50;99.90
12708;DHT22;6418;50.824;4.718;2023-07-13T06:40:53;17.50;99.90
12708;DHT22;6418;50.824;4.718;2023-07-13T06:43:20;17.60;99.90
12708;DHT22;6418;50.824;4.718;2023-07-13T06:45:48;17.60;99.90
12708;DHT22;6418;50.824;4.718;2023-07-13T06:48:18;17.60;99.90
12708;DHT22;6418;50.824;4.718;2023-07-13T06:50:45;17.70;99.90
12708;DHT22;6418;50.824;4.718;2023-07-13T06:53:12;17.70;99.90
12708;DHT22;6418;50.824;4.718;2023-07-13T06:55:39;17.80;99.90
12708;DHT22;6418;50.824;4.718;2023-07-13T06:58:06;17.90;99.90
12708;DHT22;6418;50.824;4.718;2023-07-13T07:00:33;17.90;99.90
12708;DHT22;6418;50.824;4.718;2023-07-13T07:03:00;18.00;99.90
12708;DHT22;6418;50.824;4.718;2023-07-13T07:05:28;18.00;99.90
12708;DHT22;6418;50.824;4.718;2023-07-13T07:07:55;18.10;99.90
12708;DHT22;6418;50.824;4.718;2023-07-13T07:10:22;18.10;99.90
12708;DHT22;6418;50.824;4.718;2023-07-13T07:12:49;18.20;99.90
12708;DHT22;6418;50.824;4.718;2023-07-13T07:15:17;18.30;99.90
12708;DHT22;6418;50.824;4.718;2023-07-13T07:17:44;18.30;99.90
12708;DHT22;6418;50.824;4.718;2023-07-13T07:20:12;18.40;99.90
12708;DHT22;6418;50.824;4.718;2023-07-13T07:22:40;18.50;99.90
12708;DHT22;6418;50.824;4.718;2023-07-13T07:25:07;18.60;99.90
12708;DHT22;6418;50.824;4.718;2023-07-13T07:27:34;18.70;99.90
12708;DHT22;6418;50.824;4.718;2023-07-13T07:30:01;18.70;99.90
12708;DHT22;6418;50.824;4.718;2023-07-13T07:32:29;18.80;99.90
12708;DHT22;6418;50.824;4.718;2023-07-13T07:34:57;18.90;99.90
12708;DHT22;6418;50.824;4.718;2023-07-13T07:37:24;19.00;99.90
12708;DHT22;6418;50.824;4.718;2023-07-13T07:39:52;19.10;99.90
12708;DHT22;6418;50.824;4.718;2023-07-13T07:42:19;19.10;99.90
12708;DHT22;6418;50.824;4.718;2023-07-13T07:44:46;19.20;99.90
12708;DHT22;6418;50.824;4.718;2023-07-13T07:47:13;19.30;99.90
12708;DHT22;6418;50.824;4.718;2023-07-13T07:49:40;19.40;99.90
12708;DHT22;6418;50.824;4.718;2023-07-13T07:52:07;19.40;99.90
12708;DHT22;6418;50.824;4.718;2023-07-13T07:54:34;19.50;99.90
12708;DHT22;6418;50.824;4.718;2023-07-13T07:57:03;19.50;99.90
12708;DHT22;6418;50.824;4.718;2023-07-13T07:59:30;19.60;99.90
12708;DHT22;6418;50.824;4.718;2023-07-13T08:01:57;19.60;99.90
12708;DHT22;6418;50.824;4.718;2023-07-13T08:04:24;19.60;99.90
12708;DHT22;6418;50.824;4.718;2023-07-13T08:06:51;19.60;99.90
12708;DHT22;6418;50.824;4.718;2023-07-13T08:09:17;19.60;99.90
12708;DHT22;6418;50.824;4.718;2023-07-13T08:11:47;19.60;99.90
12708;DHT22;6418;50.824;4.718;2023-07-13T08:14:15;19.60;99.90
12708;DHT22;6418;50.824;4.718;2023-07-13T08:16:42;19.60;99.90
12708;DHT22;6418;50.824;4.718;2023-07-13T08:19:09;19.60;99.90
12708;DHT22;6418;50.824;4.718;2023-07-13T08:21:36;19.70;99.90
12708;DHT22;6418;50.824;4.718;2023-07-13T08:24:04;19.70;99.90
12708;DHT22;6418;50.824;4.718;2023-07-13T08:26:31;19.70;99.90
12708;DHT22;6418;50.824;4.718;2023-07-13T08:28:58;19.80;99.90
12708;DHT22;6418;50.824;4.718;2023-07-13T08:31:26;19.80;99.90
12708;DHT22;6418;50.824;4.718;2023-07-13T08:33:53;19.80;99.90
12708;DHT22;6418;50.824;4.718;2023-07-13T08:36:20;19.80;99.90
12708;DHT22;6418;50.824;4.718;2023-07-13T08:38:46;19.90;99.90
12708;DHT22;6418;50.824;4.718;2023-07-13T08:41:15;19.90;99.90
12708;DHT22;6418;50.824;4.718;2023-07-13T08:43:45;19.90;99.90
12708;DHT22;6418;50.824;4.718;2023-07-13T08:46:16;20.00;99.90
12708;DHT22;6418;50.824;4.718;2023-07-13T08:48:49;20.10;99.90
12708;DHT22;6418;50.824;4.718;2023-07-13T08:51:27;20.10;99.90
12708;DHT22;6418;50.824;4.718;2023-07-13T08:53:58;20.20;99.90
12708;DHT22;6418;50.824;4.718;2023-07-13T08:56:28;20.30;99.90
12708;DHT22;6418;50.824;4.718;2023-07-13T08:59:00;20.30;99.90
12708;DHT22;6418;50.824;4.718;2023-07-13T09:01:33;20.40;99.90
12708;DHT22;6418;50.824;4.718;2023-07-13T09:04:07;20.40;99.90
12708;DHT22;6418;50.824;4.718;2023-07-13T09:06:42;20.40;99.90
12708;DHT22;6418;50.824;4.718;2023-07-13T09:09:19;20.50;99.90
12708;DHT22;6418;50.824;4.718;2023-07-13T09:11:53;20.50;99.90
12708;DHT22;6418;50.824;4.718;2023-07-13T09:14:40;20.60;99.90
12708;DHT22;6418;50.824;4.718;2023-07-13T09:17:14;20.60;99.90
12708;DHT22;6418;50.824;4.718;2023-07-13T09:19:47;20.60;99.90
12708;DHT22;6418;50.824;4.718;2023-07-13T09:22:17;20.60;99.90
12708;DHT22;6418;50.824;4.718;2023-07-13T09:24:53;20.70;99.90
12708;DHT22;6418;50.824;4.718;2023-07-13T09:27:26;20.70;99.90
12708;DHT22;6418;50.824;4.718;2023-07-13T09:29:58;20.80;99.90
12708;DHT22;6418;50.824;4.718;2023-07-13T09:32:29;20.80;99.90
12708;DHT22;6418;50.824;4.718;2023-07-13T09:34:57;20.80;99.90
12708;DHT22;6418;50.824;4.718;2023-07-13T09:37:30;20.70;99.90
12708;DHT22;6418;50.824;4.718;2023-07-13T09:39:58;20.70;99.90
12708;DHT22;6418;50.824;4.718;2023-07-13T09:42:26;20.70;99.90
12708;DHT22;6418;50.824;4.718;2023-07-13T09:44:55;20.70;99.90
12708;DHT22;6418;50.824;4.718;2023-07-13T09:47:25;20.70;99.90
12708;DHT22;6418;50.824;4.718;2023-07-13T09:49:58;20.70;99.90
12708;DHT22;6418;50.824;4.718;2023-07-13T09:52:26;20.80;99.90
12708;DHT22;6418;50.824;4.718;2023-07-13T09:54:54;20.90;99.90
12708;DHT22;6418;50.824;4.718;2023-07-13T09:57:26;21.00;99.90
12708;DHT22;6418;50.824;4.718;2023-07-13T09:59:55;21.20;99.90
12708;DHT22;6418;50.824;4.718;2023-07-13T10:02:28;21.20;99.90
12708;DHT22;6418;50.824;4.718;2023-07-13T10:04:58;21.30;99.90
12708;DHT22;6418;50.824;4.718;2023-07-13T10:07:26;21.40;99.90
12708;DHT22;6418;50.824;4.718;2023-07-13T10:09:53;21.40;99.90
12708;DHT22;6418;50.824;4.718;2023-07-13T10:12:21;21.40;99.90
12708;DHT22;6418;50.824;4.718;2023-07-13T10:14:51;21.40;99.90
12708;DHT22;6418;50.824;4.718;2023-07-13T10:17:21;21.50;99.90
12708;DHT22;6418;50.824;4.718;2023-07-13T10:19:51;21.50;99.90
12708;DHT22;6418;50.824;4.718;2023-07-13T10:22:24;21.50;99.90
12708;DHT22;6418;50.824;4.718;2023-07-13T10:24:52;21.50;99.90
12708;DHT22;6418;50.824;4.718;2023-07-13T10:27:25;21.50;99.90
12708;DHT22;6418;50.824;4.718;2023-07-13T10:30:01;21.50;99.90
12708;DHT22;6418;50.824;4.718;2023-07-13T10:32:28;21.60;99.90
12708;DHT22;6418;50.824;4.718;2023-07-13T10:34:55;21.60;99.90
12708;DHT22;6418;50.824;4.718;2023-07-13T10:37:33;21.60;99.90
12708;DHT22;6418;50.824;4.718;2023-07-13T10:40:04;21.80;99.90
12708;DHT22;6418;50.824;4.718;2023-07-13T10:42:35;21.90;99.90
12708;DHT22;6418;50.824;4.718;2023-07-13T10:45:13;22.10;99.90
12708;DHT22;6418;50.824;4.718;2023-07-13T10:47:40;22.20;99.90
12708;DHT22;6418;50.824;4.718;2023-07-13T10:50:11;22.20;99.90
12708;DHT22;6418;50.824;4.718;2023-07-13T10:52:46;22.30;99.90
12708;DHT22;6418;50.824;4.718;2023-07-13T10:55:34;22.30;99.90
12708;DHT22;6418;50.824;4.718;2023-07-13T10:58:03;22.30;99.90
12708;DHT22;6418;50.824;4.718;2023-07-13T11:00:46;22.30;99.90
12708;DHT22;6418;50.824;4.718;2023-07-13T11:03:15;22.40;99.90
12708;DHT22;6418;50.824;4.718;2023-07-13T11:05:43;22.40;99.90
12708;DHT22;6418;50.824;4.718;2023-07-13T11:08:19;22.40;99.90
12708;DHT22;6418;50.824;4.718;2023-07-13T11:10:53;22.40;99.90
12708;DHT22;6418;50.824;4.718;2023-07-13T11:13:38;22.40;99.90
12708;DHT22;6418;50.824;4.718;2023-07-13T11:16:41;22.40;99.90
12708;DHT22;6418;50.824;4.718;2023-07-13T11:19:26;22.50;99.90
12708;DHT22;6418;50.824;4.718;2023-07-13T11:22:03;22.60;99.90
12708;DHT22;6418;50.824;4.718;2023-07-13T11:24:48;22.70;99.90
12708;DHT22;6418;50.824;4.718;2023-07-13T11:27:22;22.80;99.90
12708;DHT22;6418;50.824;4.718;2023-07-13T11:29:49;22.90;99.90
12708;DHT22;6418;50.824;4.718;2023-07-13T11:32:25;23.00;99.90
12708;DHT22;6418;50.824;4.718;2023-07-13T11:34:53;23.10;99.90
12708;DHT22;6418;50.824;4.718;2023-07-13T11:37:22;23.20;99.90
12708;DHT22;6418;50.824;4.718;2023-07-13T11:39:51;23.20;99.90
12708;DHT22;6418;50.824;4.718;2023-07-13T11:42:21;23.20;99.90
12708;DHT22;6418;50.824;4.718;2023-07-13T11:44:49;23.20;99.90
12708;DHT22;6418;50.824;4.718;2023-07-13T11:47:20;23.20;99.90
12708;DHT22;6418;50.824;4.718;2023-07-13T11:49:49;23.30;99.90
12708;DHT22;6418;50.824;4.718;2023-07-13T11:52:20;23.40;99.90
12708;DHT22;6418;50.824;4.718;2023-07-13T11:54:53;23.40;99.90
12708;DHT22;6418;50.824;4.718;2023-07-13T11:57:25;23.40;99.90
12708;DHT22;6418;50.824;4.718;2023-07-13T11:59:54;23.50;99.90
12708;DHT22;6418;50.824;4.718;2023-07-13T12:02:27;23.60;99.90
12708;DHT22;6418;50.824;4.718;2023-07-13T12:04:55;23.60;99.90
12708;DHT22;6418;50.824;4.718;2023-07-13T12:07:22;23.70;99.90
12708;DHT22;6418;50.824;4.718;2023-07-13T12:09:49;23.80;99.90
12708;DHT22;6418;50.824;4.718;2023-07-13T12:12:20;23.80;99.90
12708;DHT22;6418;50.824;4.718;2023-07-13T12:14:51;23.80;99.90
12708;DHT22;6418;50.824;4.718;2023-07-13T12:17:20;23.80;99.90
12708;DHT22;6418;50.824;4.718;2023-07-13T12:19:48;23.80;99.90
12708;DHT22;6418;50.824;4.718;2023-07-13T12:22:17;23.90;99.90
12708;DHT22;6418;50.824;4.718;2023-07-13T12:24:45;24.00;99.90
12708;DHT22;6418;50.824;4.718;2023-07-13T12:27:20;24.00;99.90
12708;DHT22;6418;50.824;4.718;2023-07-13T12:29:53;23.90;99.90
12708;DHT22;6418;50.824;4.718;2023-07-13T12:32:25;23.80;99.90
12708;DHT22;6418;50.824;4.718;2023-07-13T12:34:53;23.80;99.90
12708;DHT22;6418;50.824;4.718;2023-07-13T12:37:21;23.80;99.90
12708;DHT22;6418;50.824;4.718;2023-07-13T12:39:49;23.80;99.90
12708;DHT22;6418;50.824;4.718;2023-07-13T12:42:23;23.70;99.90
12708;DHT22;6418;50.824;4.718;2023-07-13T12:44:54;23.70;99.90
12708;DHT22;6418;50.824;4.718;2023-07-13T12:47:23;23.60;99.90
12708;DHT22;6418;50.824;4.718;2023-07-13T12:49:53;23.50;99.90
12708;DHT22;6418;50.824;4.718;2023-07-13T12:52:22;23.40;99.90
12708;DHT22;6418;50.824;4.718;2023-07-13T12:54:55;23.30;99.90
12708;DHT22;6418;50.824;4.718;2023-07-13T12:57:25;23.30;99.90
12708;DHT22;6418;50.824;4.718;2023-07-13T12:59:52;23.30;99.90
12708;DHT22;6418;50.824;4.718;2023-07-13T13:02:30;23.40;99.90
12708;DHT22;6418;50.824;4.718;2023-07-13T13:04:57;23.40;99.90
12708;DHT22;6418;50.824;4.718;2023-07-13T13:07:25;23.50;99.90
12708;DHT22;6418;50.824;4.718;2023-07-13T13:09:52;23.60;99.90
12708;DHT22;6418;50.824;4.718;2023-07-13T13:12:22;23.50;99.90
12708;DHT22;6418;50.824;4.718;2023-07-13T13:14:51;23.20;99.90
12708;DHT22;6418;50.824;4.718;2023-07-13T13:17:20;22.70;99.90
12708;DHT22;6418;50.824;4.718;2023-07-13T13:19:48;22.30;99.90
12708;DHT22;6418;50.824;4.718;2023-07-13T13:22:15;22.30;99.90
12708;DHT22;6418;50.824;4.718;2023-07-13T13:24:43;22.20;99.90
12708;DHT22;6418;50.824;4.718;2023-07-13T13:27:15;22.00;99.90
12708;DHT22;6418;50.824;4.718;2023-07-13T13:29:43;21.90;99.90
12708;DHT22;6418;50.824;4.718;2023-07-13T13:32:13;21.80;99.90
12708;DHT22;6418;50.824;4.718;2023-07-13T13:34:41;21.70;99.90
12708;DHT22;6418;50.824;4.718;2023-07-13T13:37:17;21.60;99.90
12708;DHT22;6418;50.824;4.718;2023-07-13T13:39:45;21.60;99.90
12708;DHT22;6418;50.824;4.718;2023-07-13T13:42:12;21.50;99.90
12708;DHT22;6418;50.824;4.718;2023-07-13T13:44:39;21.60;99.90
12708;DHT22;6418;50.824;4.718;2023-07-13T13:47:19;21.90;99.90
12708;DHT22;6418;50.824;4.718;2023-07-13T13:49:47;22.20;99.90
12708;DHT22;6418;50.824;4.718;2023-07-13T13:52:14;22.60;99.90
12708;DHT22;6418;50.824;4.718;2023-07-13T13:54:41;23.00;99.90
12708;DHT22;6418;50.824;4.718;2023-07-13T13:57:08;23.30;99.90
12708;DHT22;6418;50.824;4.718;2023-07-13T13:59:37;23.60;99.90
12708;DHT22;6418;50.824;4.718;2023-07-13T14:02:19;23.70;99.90
12708;DHT22;6418;50.824;4.718;2023-07-13T14:04:51;24.00;99.90
12708;DHT22;6418;50.824;4.718;2023-07-13T14:07:20;24.10;99.90
12708;DHT22;6418;50.824;4.718;2023-07-13T14:09:47;24.20;99.90
12708;DHT22;6418;50.824;4.718;2023-07-13T14:12:14;24.40;99.90
12708;DHT22;6418;50.824;4.718;2023-07-13T14:14:41;24.50;99.90
12708;DHT22;6418;50.824;4.718;2023-07-13T14:17:19;24.50;99.90
12708;DHT22;6418;50.824;4.718;2023-07-13T14:19:49;24.60;99.90
12708;DHT22;6418;50.824;4.718;2023-07-13T14:22:22;24.70;99.90
12708;DHT22;6418;50.824;4.718;2023-07-13T14:24:49;24.80;99.90
12708;DHT22;6418;50.824;4.718;2023-07-13T14:27:16;24.90;99.90
12708;DHT22;6418;50.824;4.718;2023-07-13T14:29:43;24.90;99.90
12708;DHT22;6418;50.824;4.718;2023-07-13T14:32:11;24.90;99.90
12708;DHT22;6418;50.824;4.718;2023-07-13T14:34:38;24.90;99.90
12708;DHT22;6418;50.824;4.718;2023-07-13T14:37:12;25.10;99.90
12708;DHT22;6418;50.824;4.718;2023-07-13T14:39:42;25.40;99.90
12708;DHT22;6418;50.824;4.718;2023-07-13T14:42:10;25.70;99.90
12708;DHT22;6418;50.824;4.718;2023-07-13T14:44:38;25.80;99.90
12708;DHT22;6418;50.824;4.718;2023-07-13T14:47:06;26.00;99.90
12708;DHT22;6418;50.824;4.718;2023-07-13T14:49:36;26.00;99.90
12708;DHT22;6418;50.824;4.718;2023-07-13T14:52:12;25.90;99.90
12708;DHT22;6418;50.824;4.718;2023-07-13T14:54:40;25.80;99.90
12708;DHT22;6418;50.824;4.718;2023-07-13T14:57:10;25.80;99.90
12708;DHT22;6418;50.824;4.718;2023-07-13T14:59:37;25.70;99.90
12708;DHT22;6418;50.824;4.718;2023-07-13T15:02:16;25.50;99.90
12708;DHT22;6418;50.824;4.718;2023-07-13T15:04:44;25.20;99.90
12708;DHT22;6418;50.824;4.718;2023-07-13T15:07:13;25.00;99.90
12708;DHT22;6418;50.824;4.718;2023-07-13T15:09:41;24.80;99.90
12708;DHT22;6418;50.824;4.718;2023-07-13T15:12:08;24.60;99.90
12708;DHT22;6418;50.824;4.718;2023-07-13T15:14:35;24.40;99.90
12708;DHT22;6418;50.824;4.718;2023-07-13T15:17:02;24.30;99.90
12708;DHT22;6418;50.824;4.718;2023-07-13T15:19:30;24.20;99.90
12708;DHT22;6418;50.824;4.718;2023-07-13T15:21:58;24.10;99.90
12708;DHT22;6418;50.824;4.718;2023-07-13T15:24:27;24.00;99.90
12708;DHT22;6418;50.824;4.718;2023-07-13T15:26:54;24.00;99.90
12708;DHT22;6418;50.824;4.718;2023-07-13T15:29:21;23.90;99.90
12708;DHT22;6418;50.824;4.718;2023-07-13T15:31:48;23.90;99.90
12708;DHT22;6418;50.824;4.718;2023-07-13T15:34:17;23.90;99.90
12708;DHT22;6418;50.824;4.718;2023-07-13T15:36:45;23.80;99.90
12708;DHT22;6418;50.824;4.718;2023-07-13T15:39:14;23.70;99.90
12708;DHT22;6418;50.824;4.718;2023-07-13T15:41:44;23.70;99.90
12708;DHT22;6418;50.824;4.718;2023-07-13T15:44:23;23.60;99.90
12708;DHT22;6418;50.824;4.718;2023-07-13T15:46:51;23.50;99.90
12708;DHT22;6418;50.824;4.718;2023-07-13T15:49:18;23.50;99.90
12708;DHT22;6418;50.824;4.718;2023-07-13T15:51:45;23.50;99.90
12708;DHT22;6418;50.824;4.718;2023-07-13T15:54:16;23.50;99.90
12708;DHT22;6418;50.824;4.718;2023-07-13T15:56:52;23.50;99.90